Observation data for Muleshoe on 05/14/2018      Previous  Date  Next       Current Mesonet Observations  Soil Data  Daily Summary Page  Observations in Plain Language
KMUS 140500Z 22007KT 21/M03 A2995 RMK A01 T02081027  RH  021%=      5-min Rain = 0
KMUS 140505Z 23010KT 22/M04 A2994 RMK A01 T02201036  RH  018%=      5-min Rain = 0
KMUS 140510Z 24011KT 23/M04 A2994 RMK A01 T02331040  RH  016%=      5-min Rain = 0
KMUS 140515Z 23010KT 23/M04 A2994 RMK A01 T02341041  RH  016%=      5-min Rain = 0
KMUS 140520Z 24011KT 23/M04 A2994 RMK A01 T02331041  RH  016%=      5-min Rain = 0
KMUS 140525Z 24011KT 23/M04 A2994 RMK A01 T02311040  RH  016%=      5-min Rain = 0
KMUS 140530Z 23010KT 23/M04 A2994 RMK A01 T02281040  RH  016%=      5-min Rain = 0
KMUS 140535Z 23010KT 23/M04 A2995 RMK A01 T02251039  RH  017%=      5-min Rain = 0
KMUS 140540Z 23010KT 22/M04 A2994 RMK A01 T02221038  RH  017%=      5-min Rain = 0
KMUS 140545Z 23010KT 22/M04 A2994 RMK A01 T02201038  RH  018%=      5-min Rain = 0
KMUS 140550Z 23009KT 22/M04 A2994 RMK A01 T02161037  RH  018%=      5-min Rain = 0
KMUS 140555Z 23009KT 21/M04 A2994 RMK A01 T02131036  RH  019%=      5-min Rain = 0
KMUS 140600Z 23009KT 21/M04 A2995 RMK A01 T02091035  RH  019%=      5-min Rain = 0
KMUS 140605Z 23008KT 21/M04 A2994 RMK A01 T02071035  RH  019%=      5-min Rain = 0
KMUS 140610Z 24008KT 21/M04 A2994 RMK A01 T02051035  RH  020%=      5-min Rain = 0
KMUS 140615Z 24009KT 20/M03 A2994 RMK A01 T02011034  RH  020%=      5-min Rain = 0
KMUS 140620Z 24009KT 20/M03 A2994 RMK A01 T01971034  RH  021%=      5-min Rain = 0
KMUS 140625Z 25009KT 20/M03 A2994 RMK A01 T01961034  RH  021%=      5-min Rain = 0
KMUS 140630Z 25009KT 19/M03 A2994 RMK A01 T01941033  RH  021%=      5-min Rain = 0
KMUS 140635Z 25008KT 19/M03 A2994 RMK A01 T01911033  RH  022%=      5-min Rain = 0
KMUS 140640Z 25008KT 19/M03 A2994 RMK A01 T01861032  RH  023%=      5-min Rain = 0
KMUS 140645Z 25007KT 18/M03 A2994 RMK A01 T01791031  RH  024%=      5-min Rain = 0
KMUS 140650Z 26006KT 17/M03 A2994 RMK A01 T01731030  RH  025%=      5-min Rain = 0
KMUS 140655Z 27005KT 17/M03 A2994 RMK A01 T01661029  RH  026%=      5-min Rain = 0
KMUS 140700Z 28005KT 16/M03 A2994 RMK A01 T01591029  RH  028%=      5-min Rain = 0
KMUS 140705Z 26007KT 15/M03 A2994 RMK A01 T01501028  RH  029%=      5-min Rain = 0
KMUS 140710Z 26007KT 14/M03 A2993 RMK A01 T01441027  RH  031%=      5-min Rain = 0
KMUS 140715Z 25006KT 14/M03 A2993 RMK A01 T01421027  RH  031%=      5-min Rain = 0
KMUS 140720Z 24006KT 14/M03 A2993 RMK A01 T01411027  RH  031%=      5-min Rain = 0
KMUS 140725Z 22006KT 14/M03 A2993 RMK A01 T01381028  RH  032%=      5-min Rain = 0
KMUS 140730Z 17009KT 14/M03 A2994 RMK A01 T01381025  RH  033%=      5-min Rain = 0
KMUS 140735Z 19011G16KT 17/M03 A2994 RMK A01 T01651025  RH  027%=      5-min Rain = 0
KMUS 140740Z 20010KT 19/M03 A2994 RMK A01 T01921028  RH  023%=      5-min Rain = 0
KMUS 140745Z 18011KT 20/M03 A2995 RMK A01 T01971029  RH  022%=      5-min Rain = 0
KMUS 140750Z 18011KT 20/M03 A2995 RMK A01 T01961027  RH  022%=      5-min Rain = 0
KMUS 140755Z 19010KT 20/M03 A2994 RMK A01 T01961029  RH  022%=      5-min Rain = 0
KMUS 140800Z 19010KT 20/M03 A2994 RMK A01 T01971029  RH  022%=      5-min Rain = 0
KMUS 140805Z 19011KT 20/M03 A2994 RMK A01 T01951030  RH  022%=      5-min Rain = 0
KMUS 140810Z 19009KT 19/M03 A2994 RMK A01 T01941030  RH  022%=      5-min Rain = 0
KMUS 140815Z 20010KT 19/M03 A2994 RMK A01 T01901028  RH  023%=      5-min Rain = 0
KMUS 140820Z 20010KT 19/M03 A2994 RMK A01 T01901029  RH  023%=      5-min Rain = 0
KMUS 140825Z 21010KT 19/M03 A2994 RMK A01 T01921029  RH  022%=      5-min Rain = 0
KMUS 140830Z 20010KT 19/M03 A2994 RMK A01 T01921029  RH  022%=      5-min Rain = 0
KMUS 140835Z 20009KT 19/M03 A2994 RMK A01 T01911029  RH  023%=      5-min Rain = 0
KMUS 140840Z 20009KT 19/M03 A2995 RMK A01 T01861028  RH  023%=      5-min Rain = 0
KMUS 140845Z 20009KT 19/M03 A2995 RMK A01 T01851028  RH  024%=      5-min Rain = 0
KMUS 140850Z 19011KT 18/M03 A2994 RMK A01 T01841029  RH  024%=      5-min Rain = 0
KMUS 140855Z 22008KT 18/M03 A2995 RMK A01 T01841027  RH  024%=      5-min Rain = 0
KMUS 140900Z 20009KT 18/M03 A2994 RMK A01 T01841026  RH  024%=      5-min Rain = 0
KMUS 140905Z 21008KT 18/M02 A2994 RMK A01 T01841022  RH  025%=      5-min Rain = 0
KMUS 140910Z 21008KT 19/M02 A2995 RMK A01 T01851022  RH  025%=      5-min Rain = 0
KMUS 140915Z 18010KT 18/M02 A2995 RMK A01 T01791020  RH  026%=      5-min Rain = 0
KMUS 140920Z 19010G15KT 18/M01 A2995 RMK A01 T01751013  RH  028%=      5-min Rain = 0
KMUS 140925Z 19009KT 18/M01 A2995 RMK A01 T01771010  RH  028%=      5-min Rain = 0
KMUS 140930Z 18010KT 17/M00 A2995 RMK A01 T01701003  RH  031%=      5-min Rain = 0
KMUS 140935Z 18010KT 17/01 A2995 RMK A01 T01680005  RH  034%=      5-min Rain = 0
KMUS 140940Z 19007KT 17/01 A2995 RMK A01 T01660012  RH  036%=      5-min Rain = 0
KMUS 140945Z 19008KT 16/02 A2996 RMK A01 T01640017  RH  038%=      5-min Rain = 0
KMUS 140950Z 20009KT 17/03 A2996 RMK A01 T01660031  RH  041%=      5-min Rain = 0
KMUS 140955Z 21009KT 17/04 A2996 RMK A01 T01710036  RH  041%=      5-min Rain = 0
KMUS 141000Z 21008KT 17/04 A2996 RMK A01 T01720036  RH  041%=      5-min Rain = 0
KMUS 141005Z 23005KT 17/04 A2996 RMK A01 T01710037  RH  042%=      5-min Rain = 0
KMUS 141010Z 26005KT 17/03 A2997 RMK A01 T01660030  RH  041%=      5-min Rain = 0
KMUS 141015Z 22004KT 16/03 A2997 RMK A01 T01620031  RH  042%=      5-min Rain = 0
KMUS 141020Z 22006KT 16/03 A2997 RMK A01 T01580030  RH  043%=      5-min Rain = 0
KMUS 141025Z 22005KT 16/03 A2997 RMK A01 T01550029  RH  043%=      5-min Rain = 0
KMUS 141030Z 23005KT 15/03 A2997 RMK A01 T01490029  RH  045%=      5-min Rain = 0
KMUS 141035Z 22005KT 14/03 A2997 RMK A01 T01430027  RH  046%=      5-min Rain = 0
KMUS 141040Z 20005KT 14/03 A2997 RMK A01 T01360027  RH  048%=      5-min Rain = 0
KMUS 141045Z 20005KT 13/03 A2997 RMK A01 T01320027  RH  050%=      5-min Rain = 0
KMUS 141050Z 21006KT 13/03 A2997 RMK A01 T01290032  RH  052%=      5-min Rain = 0
KMUS 141055Z 20006KT 13/03 A2997 RMK A01 T01300032  RH  052%=      5-min Rain = 0
KMUS 141100Z 19005KT 13/04 A2998 RMK A01 T01310038  RH  054%=      5-min Rain = 0
KMUS 141105Z 20005KT 13/04 A2998 RMK A01 T01320042  RH  056%=      5-min Rain = 0
KMUS 141110Z 20005KT 13/05 A2998 RMK A01 T01330047  RH  057%=      5-min Rain = 0
KMUS 141115Z 20006KT 13/05 A2998 RMK A01 T01340051  RH  059%=      5-min Rain = 0
KMUS 141120Z 20006KT 14/06 A2998 RMK A01 T01370056  RH  060%=      5-min Rain = 0
KMUS 141125Z 20007KT 14/06 A2998 RMK A01 T01420062  RH  060%=      5-min Rain = 0
KMUS 141130Z 20010KT 15/07 A2998 RMK A01 T01500068  RH  059%=      5-min Rain = 0
KMUS 141135Z 21011KT 16/07 A2998 RMK A01 T01570070  RH  057%=      5-min Rain = 0
KMUS 141140Z 21010KT 16/07 A2998 RMK A01 T01610068  RH  055%=      5-min Rain = 0
KMUS 141145Z 22011KT 16/07 A2997 RMK A01 T01630067  RH  054%=      5-min Rain = 0
KMUS 141150Z 21010KT 16/07 A2998 RMK A01 T01620066  RH  054%=      5-min Rain = 0
KMUS 141155Z 20007KT 16/07 A2998 RMK A01 T01570067  RH  056%=      5-min Rain = 0
KMUS 141200Z 22007KT 15/07 A2998 RMK A01 T01520067  RH  058%=      5-min Rain = 0
KMUS 141205Z 22008KT 15/06 A2998 RMK A01 T01520064  RH  057%=      5-min Rain = 0
KMUS 141210Z 21006KT 15/06 A2998 RMK A01 T01510063  RH  057%=      5-min Rain = 0
KMUS 141215Z 21004KT 15/06 A2998 RMK A01 T01470064  RH  059%=      5-min Rain = 0
KMUS 141220Z 26003KT 15/06 A2998 RMK A01 T01450063  RH  059%=      5-min Rain = 0
KMUS 141225Z 26004KT 15/06 A2999 RMK A01 T01470062  RH  058%=      5-min Rain = 0
KMUS 141230Z 26005KT 15/06 A2999 RMK A01 T01500062  RH  057%=      5-min Rain = 0
KMUS 141235Z 29003KT 15/06 A2999 RMK A01 T01500058  RH  056%=      5-min Rain = 0
KMUS 141240Z 28005KT 15/06 A2999 RMK A01 T01450056  RH  056%=      5-min Rain = 0
KMUS 141245Z 29004KT 14/06 A2999 RMK A01 T01440056  RH  057%=      5-min Rain = 0
KMUS 141250Z 31004KT 15/06 A2999 RMK A01 T01460057  RH  056%=      5-min Rain = 0
KMUS 141255Z 31004KT 15/06 A2999 RMK A01 T01490059  RH  056%=      5-min Rain = 0
KMUS 141300Z 30003KT 15/06 A30 RMK A01 T01540059  RH  055%=      5-min Rain = 0
KMUS 141305Z 29003KT 16/06 A30 RMK A01 T01600058  RH  052%=      5-min Rain = 0
KMUS 141310Z 28003KT 17/06 A30 RMK A01 T01660058  RH  050%=      5-min Rain = 0
KMUS 141315Z 28004KT 17/06 A30 RMK A01 T01720056  RH  047%=      5-min Rain = 0
KMUS 141320Z 29004KT 18/05 A30 RMK A01 T01760054  RH  046%=      5-min Rain = 0
KMUS 141325Z 28003KT 18/05 A30 RMK A01 T01820053  RH  044%=      5-min Rain = 0
KMUS 141330Z 28003KT 19/05 A30 RMK A01 T01870053  RH  042%=      5-min Rain = 0
KMUS 141335Z 28004KT 20/06 A30 RMK A01 T01950055  RH  041%=      5-min Rain = 0
KMUS 141340Z 27004KT 21/05 A30 RMK A01 T02060054  RH  038%=      5-min Rain = 0
KMUS 141345Z 27004KT 22/05 A30 RMK A01 T02150054  RH  036%=      5-min Rain = 0
KMUS 141350Z 27004KT 22/05 A30 RMK A01 T02220050  RH  033%=      5-min Rain = 0
KMUS 141355Z 28004KT 23/05 A3001 RMK A01 T02260048  RH  032%=      5-min Rain = 0
KMUS 141400Z 28004KT 23/05 A3001 RMK A01 T02270047  RH  032%=      5-min Rain = 0
KMUS 141405Z 28003KT 23/05 A3001 RMK A01 T02300047  RH  031%=      5-min Rain = 0
KMUS 141410Z 27004KT 24/05 A3001 RMK A01 T02380046  RH  029%=      5-min Rain = 0
KMUS 141415Z 28005KT 24/04 A3001 RMK A01 T02430042  RH  028%=      5-min Rain = 0
KMUS 141420Z 27007KT 25/04 A3001 RMK A01 T02490041  RH  027%=      5-min Rain = 0
KMUS 141425Z 28007KT 25/04 A3001 RMK A01 T02510039  RH  026%=      5-min Rain = 0
KMUS 141430Z 26009KT 25/04 A3001 RMK A01 T02530035  RH  025%=      5-min Rain = 0
KMUS 141435Z 26009KT 26/03 A3001 RMK A01 T02590031  RH  023%=      5-min Rain = 0
KMUS 141440Z 27009KT 26/03 A3001 RMK A01 T02630025  RH  022%=      5-min Rain = 0
KMUS 141445Z 27009KT 27/02 A3001 RMK A01 T02660017  RH  020%=      5-min Rain = 0
KMUS 141450Z 26009KT 27/01 A3001 RMK A01 T02670012  RH  019%=      5-min Rain = 0
KMUS 141455Z 27009KT 27/01 A3001 RMK A01 T02700005  RH  018%=      5-min Rain = 0
KMUS 141500Z 26009KT 27/00 A3001 RMK A01 T02720002  RH  017%=      5-min Rain = 0
KMUS 141505Z 26008G13KT 27/M00 A3001 RMK A01 T02741001  RH  017%=      5-min Rain = 0
KMUS 141510Z 27009KT 28/M01 A3001 RMK A01 T02781009  RH  016%=      5-min Rain = 0
KMUS 141515Z 27009G14KT 28/M01 A3001 RMK A01 T02781010  RH  015%=      5-min Rain = 0
KMUS 141520Z 28007G12KT 28/M01 A3001 RMK A01 T02791010  RH  015%=      5-min Rain = 0
KMUS 141525Z 26009KT 28/M01 A3001 RMK A01 T02821006  RH  015%=      5-min Rain = 0
KMUS 141530Z 27008KT 28/M01 A3001 RMK A01 T02821012  RH  015%=      5-min Rain = 0
KMUS 141535Z 26008KT 28/M01 A3001 RMK A01 T02841010  RH  015%=      5-min Rain = 0
KMUS 141540Z 26007G12KT 29/M01 A3001 RMK A01 T02851013  RH  014%=      5-min Rain = 0
KMUS 141545Z 25008G13KT 29/M01 A3001 RMK A01 T02871013  RH  014%=      5-min Rain = 0
KMUS 141550Z 24008KT 29/M01 A3001 RMK A01 T02881014  RH  014%=      5-min Rain = 0
KMUS 141555Z 24009KT 29/M01 A3001 RMK A01 T02891013  RH  014%=      5-min Rain = 0
KMUS 141600Z 25008KT 29/M01 A3001 RMK A01 T02891013  RH  014%=      5-min Rain = 0
KMUS 141605Z 26009G14KT 29/M01 A3001 RMK A01 T02911012  RH  014%=      5-min Rain = 0
KMUS 141610Z 25007G14KT 29/M01 A3001 RMK A01 T02891012  RH  014%=      5-min Rain = 0
KMUS 141615Z 25008G14KT 29/M01 A30 RMK A01 T02901013  RH  014%=      5-min Rain = 0
KMUS 141620Z 27008G15KT 29/M01 A30 RMK A01 T02931011  RH  014%=      5-min Rain = 0
KMUS 141625Z 26007KT 30/M01 A30 RMK A01 T02951012  RH  014%=      5-min Rain = 0
KMUS 141630Z 27008G13KT 30/M01 A30 RMK A01 T02961011  RH  014%=      5-min Rain = 0
KMUS 141635Z 26008G13KT 30/M01 A30 RMK A01 T02971010  RH  014%=      5-min Rain = 0
KMUS 141640Z 25008G13KT 30/M01 A30 RMK A01 T02971009  RH  014%=      5-min Rain = 0
KMUS 141645Z 28008KT 30/M01 A30 RMK A01 T02971014  RH  013%=      5-min Rain = 0
KMUS 141650Z 29008KT 30/M01 A30 RMK A01 T02981014  RH  013%=      5-min Rain = 0
KMUS 141655Z 29008G14KT 30/M01 A30 RMK A01 T02991013  RH  013%=      5-min Rain = 0
KMUS 141700Z 29008KT 30/M02 A30 RMK A01 T02981015  RH  013%=      5-min Rain = 0
KMUS 141705Z 25007KT 30/M01 A30 RMK A01 T02991013  RH  013%=      5-min Rain = 0
KMUS 141710Z 21006KT 30/M01 A30 RMK A01 T02991012  RH  013%=      5-min Rain = 0
KMUS 141715Z 29005KT 30/M01 A30 RMK A01 T03011014  RH  013%=      5-min Rain = 0
KMUS 141720Z 28006G13KT 31/M01 A30 RMK A01 T03051010  RH  013%=      5-min Rain = 0
KMUS 141725Z 28005G14KT 30/M01 A30 RMK A01 T03041012  RH  013%=      5-min Rain = 0
KMUS 141730Z 26006KT 31/M01 A30 RMK A01 T03061009  RH  013%=      5-min Rain = 0
KMUS 141735Z 22007KT 31/M01 A2999 RMK A01 T03071012  RH  013%=      5-min Rain = 0
KMUS 141740Z 23009KT 31/M01 A2999 RMK A01 T03061011  RH  013%=      5-min Rain = 0
KMUS 141745Z 24006G12KT 31/M01 A2999 RMK A01 T03051013  RH  013%=      5-min Rain = 0
KMUS 141750Z 27005G12KT 31/M01 A2999 RMK A01 T03061012  RH  013%=      5-min Rain = 0
KMUS 141755Z 26007KT 31/M01 A2999 RMK A01 T03101009  RH  013%=      5-min Rain = 0
KMUS 141800Z 27006G12KT 31/M01 A2999 RMK A01 T03111008  RH  013%=      5-min Rain = 0
KMUS 141805Z 23010KT 31/M01 A2999 RMK A01 T03111008  RH  013%=      5-min Rain = 0
KMUS 141810Z 18004G11KT 31/M01 A2999 RMK A01 T03121009  RH  013%=      5-min Rain = 0
KMUS 141815Z 22008KT 31/M01 A2999 RMK A01 T03131008  RH  013%=      5-min Rain = 0
KMUS 141820Z 25008G14KT 32/M01 A2999 RMK A01 T03171007  RH  013%=      5-min Rain = 0
KMUS 141825Z 25008G14KT 31/M01 A2998 RMK A01 T03141006  RH  013%=      5-min Rain = 0
KMUS 141830Z 27008G14KT 32/M01 A2998 RMK A01 T03151008  RH  013%=      5-min Rain = 0
KMUS 141835Z 27004G10KT 32/M01 A2998 RMK A01 T03151007  RH  013%=      5-min Rain = 0
KMUS 141840Z 14004KT 32/M01 A2998 RMK A01 T03191006  RH  013%=      5-min Rain = 0
KMUS 141845Z 21007KT 32/M00 A2997 RMK A01 T03201003  RH  013%=      5-min Rain = 0
KMUS 141850Z 19003G9KT 32/M01 A2997 RMK A01 T03161009  RH  012%=      5-min Rain = 0
KMUS 141855Z 10002KT 32/M01 A2997 RMK A01 T03161008  RH  012%=      5-min Rain = 0
KMUS 141900Z 13004KT 31/M01 A2997 RMK A01 T03101010  RH  013%=      5-min Rain = 0
KMUS 141905Z 19008KT 31/M01 A2997 RMK A01 T03081007  RH  013%=      5-min Rain = 0
KMUS 141910Z 17007KT 31/M01 A2997 RMK A01 T03071007  RH  013%=      5-min Rain = 0
KMUS 141915Z 17012G26KT 31/02 A2997 RMK A01 T03060023  RH  017%=      5-min Rain = 0
KMUS 141920Z 15014G21KT 29/04 A2997 RMK A01 T02880042  RH  021%=      5-min Rain = 0
KMUS 141925Z 14007KT 30/01 A2997 RMK A01 T02970014  RH  016%=      5-min Rain = 0
KMUS 141930Z 15007KT 30/03 A2997 RMK A01 T02990031  RH  018%=      5-min Rain = 0
KMUS 141935Z 16010G15KT 29/06 A2997 RMK A01 T02920059  RH  024%=      5-min Rain = 0
KMUS 141940Z 16011KT 28/09 A2997 RMK A01 T02780087  RH  031%=      5-min Rain = 0
KMUS 141945Z 15009KT 27/10 A2997 RMK A01 T02730104  RH  036%=      5-min Rain = 0
KMUS 141950Z 15006KT 28/10 A2996 RMK A01 T02770104  RH  035%=      5-min Rain = 0
KMUS 141955Z 14006KT 29/10 A2996 RMK A01 T02870096  RH  031%=      5-min Rain = 0
KMUS 142000Z 17009KT 31/05 A2996 RMK A01 T03050051  RH  021%=      5-min Rain = 0
KMUS 142005Z 16007KT 31/03 A2995 RMK A01 T03110034  RH  018%=      5-min Rain = 0
KMUS 142010Z 18007KT 32/04 A2995 RMK A01 T03150035  RH  017%=      5-min Rain = 0
KMUS 142015Z 17007KT 32/02 A2994 RMK A01 T03170022  RH  016%=      5-min Rain = 0
KMUS 142020Z 21005G10KT 32/02 A2994 RMK A01 T03200023  RH  015%=      5-min Rain = 0
KMUS 142025Z 21006G13KT 32/01 A2994 RMK A01 T03190011  RH  014%=      5-min Rain = 0
KMUS 142030Z 19005G10KT 31/01 A2993 RMK A01 T03140013  RH  015%=      5-min Rain = 0
KMUS 142035Z 22003KT 32/01 A2993 RMK A01 T03150013  RH  015%=      5-min Rain = 0
KMUS 142040Z 20007G15KT 31/02 A2993 RMK A01 T03120019  RH  016%=      5-min Rain = 0
KMUS 142045Z 17011G18KT 31/03 A2993 RMK A01 T03130030  RH  017%=      5-min Rain = 0
KMUS 142050Z 16013KT 31/04 A2992 RMK A01 T03060042  RH  019%=      5-min Rain = 0
KMUS 142055Z 18013KT 31/03 A2992 RMK A01 T03070034  RH  018%=      5-min Rain = 0
KMUS 142100Z 17008G14KT 31/03 A2991 RMK A01 T03070027  RH  017%=      5-min Rain = 0
KMUS 142105Z 18008KT 31/03 A2991 RMK A01 T03090032  RH  018%=      5-min Rain = 0
KMUS 142110Z 17007KT 31/03 A2991 RMK A01 T03130033  RH  017%=      5-min Rain = 0
KMUS 142115Z 17013G22KT 31/03 A2991 RMK A01 T03120033  RH  017%=      5-min Rain = 0
KMUS 142120Z 17015G21KT 31/04 A2991 RMK A01 T03060037  RH  018%=      5-min Rain = 0
KMUS 142125Z 17015G22KT 30/05 A2991 RMK A01 T03040045  RH  020%=      5-min Rain = 0
KMUS 142130Z 17020G28KT 30/04 A2991 RMK A01 T02990040  RH  020%=      5-min Rain = 0
KMUS 142135Z 17021G29KT 29/04 A2991 RMK A01 T02930043  RH  021%=      5-min Rain = 0
KMUS 142140Z 16020G25KT 29/05 A2991 RMK A01 T02900049  RH  022%=      5-min Rain = 0
KMUS 142145Z 15020G25KT 29/04 A2991 RMK A01 T02880044  RH  022%=      5-min Rain = 0
KMUS 142150Z 15016G21KT 29/04 A299 RMK A01 T02890044  RH  022%=      5-min Rain = 0
KMUS 142155Z 15016KT 30/05 A299 RMK A01 T02950045  RH  021%=      5-min Rain = 0
KMUS 142200Z 13016G21KT 31/05 A299 RMK A01 T03070051  RH  020%=      5-min Rain = 0
KMUS 142205Z 13018G23KT 30/05 A299 RMK A01 T02980050  RH  021%=      5-min Rain = 0
KMUS 142210Z 13017KT 30/05 A299 RMK A01 T02960045  RH  021%=      5-min Rain = 0
KMUS 142215Z 14015KT 29/04 A2989 RMK A01 T02920041  RH  021%=      5-min Rain = 0
KMUS 142220Z 14013KT 30/04 A2989 RMK A01 T02990041  RH  020%=      5-min Rain = 0
KMUS 142225Z 14015G20KT 30/04 A2989 RMK A01 T02990037  RH  019%=      5-min Rain = 0
KMUS 142230Z 14014KT 30/03 A2988 RMK A01 T02970034  RH  019%=      5-min Rain = 0
KMUS 142235Z 14014KT 30/03 A2988 RMK A01 T02970034  RH  019%=      5-min Rain = 0
KMUS 142240Z 13011G16KT 30/03 A2988 RMK A01 T03040034  RH  018%=      5-min Rain = 0
KMUS 142245Z 13011G17KT 31/04 A2987 RMK A01 T03120035  RH  018%=      5-min Rain = 0
KMUS 142250Z 13011G16KT 31/03 A2987 RMK A01 T03130034  RH  017%=      5-min Rain = 0
KMUS 142255Z 13009KT 31/04 A2987 RMK A01 T03140038  RH  018%=      5-min Rain = 0
KMUS 142300Z 12008KT 32/04 A2987 RMK A01 T03160037  RH  017%=      5-min Rain = 0
KMUS 142305Z 12005KT 32/04 A2987 RMK A01 T03170037  RH  017%=      5-min Rain = 0
KMUS 142310Z 12006G14KT 32/03 A2986 RMK A01 T03190029  RH  016%=      5-min Rain = 0
KMUS 142315Z 19012G22KT 33/02 A2986 RMK A01 T03250016  RH  014%=      5-min Rain = 0
KMUS 142320Z 21011G20KT 33/01 A2986 RMK A01 T03270010  RH  014%=      5-min Rain = 0
KMUS 142325Z 23012G17KT 33/M01 A2986 RMK A01 T03301014  RH  011%=      5-min Rain = 0
KMUS 142330Z 25013G22KT 33/M02 A2986 RMK A01 T03301021  RH  010%=      5-min Rain = 0
KMUS 142335Z 24015G22KT 33/M03 A2985 RMK A01 T03301026  RH  010%=      5-min Rain = 0
KMUS 142340Z 24014G19KT 33/M03 A2985 RMK A01 T03281027  RH  010%=      5-min Rain = 0
KMUS 142345Z 25013KT 33/M03 A2985 RMK A01 T03281025  RH  010%=      5-min Rain = 0
KMUS 142350Z 24012G17KT 32/M02 A2985 RMK A01 T03241024  RH  011%=      5-min Rain = 0
KMUS 142355Z 22013G18KT 33/M02 A2985 RMK A01 T03261020  RH  011%=      5-min Rain = 0
KMUS 150000Z 25013G19KT 33/M03 A2985 RMK A01 T03261025  RH  010%=      5-min Rain = 0
KMUS 150005Z 24012G17KT 33/M03 A2985 RMK A01 T03261025  RH  010%=      5-min Rain = 0
KMUS 150010Z 25013KT 32/M02 A2985 RMK A01 T03241023  RH  011%=      5-min Rain = 0
KMUS 150015Z 25010KT 32/M03 A2985 RMK A01 T03231025  RH  011%=      5-min Rain = 0
KMUS 150020Z 24008KT 32/M03 A2985 RMK A01 T03241027  RH  010%=      5-min Rain = 0
KMUS 150025Z 26008G13KT 32/M03 A2985 RMK A01 T03241030  RH  010%=      5-min Rain = 0
KMUS 150030Z 26011G17KT 32/M03 A2985 RMK A01 T03231028  RH  010%=      5-min Rain = 0
KMUS 150035Z 25010KT 32/M03 A2985 RMK A01 T03211030  RH  010%=      5-min Rain = 0
KMUS 150040Z 26008KT 32/M03 A2985 RMK A01 T03201028  RH  011%=      5-min Rain = 0
KMUS 150045Z 26007KT 32/M03 A2985 RMK A01 T03181030  RH  011%=      5-min Rain = 0
KMUS 150050Z 24008KT 32/M03 A2985 RMK A01 T03161029  RH  011%=      5-min Rain = 0
KMUS 150055Z 23009KT 31/M03 A2985 RMK A01 T03141026  RH  011%=      5-min Rain = 0
KMUS 150100Z 23009KT 31/M03 A2985 RMK A01 T03121025  RH  011%=      5-min Rain = 0
KMUS 150105Z 23008KT 31/M02 A2986 RMK A01 T03101024  RH  011%=      5-min Rain = 0
KMUS 150110Z 23007KT 31/M02 A2986 RMK A01 T03081023  RH  012%=      5-min Rain = 0
KMUS 150115Z 22007KT 30/M02 A2986 RMK A01 T03041021  RH  012%=      5-min Rain = 0
KMUS 150120Z 21007KT 30/M02 A2986 RMK A01 T02991020  RH  013%=      5-min Rain = 0
KMUS 150125Z 21006KT 29/M02 A2987 RMK A01 T02941018  RH  013%=      5-min Rain = 0
KMUS 150130Z 20007KT 29/M01 A2987 RMK A01 T02861013  RH  014%=      5-min Rain = 0
KMUS 150135Z 20006KT 28/M01 A2987 RMK A01 T02791006  RH  016%=      5-min Rain = 0
KMUS 150140Z 20005KT 27/M00 A2987 RMK A01 T02721001  RH  017%=      5-min Rain = 0
KMUS 150145Z 20005KT 27/00 A2987 RMK A01 T02680001  RH  018%=      5-min Rain = 0
KMUS 150150Z 20005KT 26/00 A2987 RMK A01 T02630003  RH  018%=      5-min Rain = 0
KMUS 150155Z 19004KT 26/00 A2988 RMK A01 T02550004  RH  020%=      5-min Rain = 0
KMUS 150200Z 17004KT 25/01 A2988 RMK A01 T02510010  RH  021%=      5-min Rain = 0
KMUS 150205Z 17006KT 25/01 A2988 RMK A01 T02460012  RH  022%=      5-min Rain = 0
KMUS 150210Z 16007KT 24/02 A2988 RMK A01 T02400020  RH  024%=      5-min Rain = 0
KMUS 150215Z 13006KT 24/02 A2989 RMK A01 T02380022  RH  025%=      5-min Rain = 0
KMUS 150220Z 10014G21KT 24/05 A299 RMK A01 T02390046  RH  029%=      5-min Rain = 0
KMUS 150225Z 10015G22KT 24/09 A299 RMK A01 T02420089  RH  039%=      5-min Rain = 0
KMUS 150230Z 10018G24KT 24/10 A2991 RMK A01 T02400096  RH  041%=      5-min Rain = 0
KMUS 150235Z 10016KT 24/10 A2991 RMK A01 T02380096  RH  042%=      5-min Rain = 0
KMUS 150240Z 11015KT 24/10 A2991 RMK A01 T02360098  RH  043%=      5-min Rain = 0
KMUS 150245Z 11015KT 23/10 A2992 RMK A01 T02330101  RH  045%=      5-min Rain = 0
KMUS 150250Z 11015G23KT 23/11 A2992 RMK A01 T02310105  RH  046%=      5-min Rain = 0
KMUS 150255Z 10014G20KT 23/11 A2993 RMK A01 T02280106  RH  048%=      5-min Rain = 0
KMUS 150300Z 10011KT 22/11 A2993 RMK A01 T02230109  RH  050%=      5-min Rain = 0
KMUS 150305Z 10015KT 22/11 A2993 RMK A01 T02200109  RH  051%=      5-min Rain = 0
KMUS 150310Z 11014KT 22/11 A2993 RMK A01 T02190107  RH  051%=      5-min Rain = 0
KMUS 150315Z 11014KT 22/11 A2993 RMK A01 T02190107  RH  051%=      5-min Rain = 0
KMUS 150320Z 11014KT 22/11 A2994 RMK A01 T02170107  RH  051%=      5-min Rain = 0
KMUS 150325Z 10012KT 22/11 A2994 RMK A01 T02160107  RH  052%=      5-min Rain = 0
KMUS 150330Z 11013KT 21/11 A2994 RMK A01 T02140108  RH  053%=      5-min Rain = 0
KMUS 150335Z 11013G18KT 21/11 A2994 RMK A01 T02140110  RH  053%=      5-min Rain = 0
KMUS 150340Z 11012KT 21/11 A2994 RMK A01 T02140111  RH  054%=      5-min Rain = 0
KMUS 150345Z 11011KT 21/11 A2994 RMK A01 T02130111  RH  054%=      5-min Rain = 0
KMUS 150350Z 11012KT 21/11 A2994 RMK A01 T02130112  RH  054%=      5-min Rain = 0
KMUS 150355Z 11013KT 21/11 A2994 RMK A01 T02130112  RH  054%=      5-min Rain = 0
KMUS 150400Z 11011KT 21/11 A2994 RMK A01 T02130113  RH  055%=      5-min Rain = 0
KMUS 150405Z 11012KT 21/11 A2994 RMK A01 T02130114  RH  055%=      5-min Rain = 0
KMUS 150410Z 11012KT 21/12 A2995 RMK A01 T02130115  RH  055%=      5-min Rain = 0
KMUS 150415Z 11012KT 21/12 A2995 RMK A01 T02120116  RH  056%=      5-min Rain = 0
KMUS 150420Z 11011KT 21/12 A2995 RMK A01 T02100116  RH  057%=      5-min Rain = 0
KMUS 150425Z 10011KT 21/12 A2995 RMK A01 T02090117  RH  058%=      5-min Rain = 0
KMUS 150430Z 10010KT 21/12 A2995 RMK A01 T02060117  RH  059%=      5-min Rain = 0
KMUS 150435Z 10010KT 20/12 A2995 RMK A01 T02020118  RH  060%=      5-min Rain = 0
KMUS 150440Z 11011KT 20/12 A2995 RMK A01 T02020119  RH  061%=      5-min Rain = 0
KMUS 150445Z 11011KT 20/12 A2995 RMK A01 T02020120  RH  062%=      5-min Rain = 0
KMUS 150450Z 11012KT 20/12 A2995 RMK A01 T02010121  RH  062%=      5-min Rain = 0
KMUS 150455Z 11011G16KT 20/12 A2995 RMK A01 T01990121  RH  063%=      5-min Rain = 0

Page generated in 0.0334 seconds.